22:26
Airports
History
Links
Donate
Help keep this website running!
PayPal
Bitcoin
This page is community maintained. The information is intended for PC simulator navigation or reference.
Always use approved charts for navigation.
CYBK
BAKER LAKE
BAKER LAKE (CYBK)
Baker Lake, Nunavut, Canada
4
Lat/Lng:64° 17' 56" N / 96° 4' 40" W
64.298889 / -96.077778
Elevation:59'ft / 18mMSL
ID / ICAO:CYBK
Runways:1
Longest:16T-34T
Gravel 1,304m / 4,277ft
METAR22:00 GMT 2017-09-19
Altimeter: 30.06
Visibility: 20.0 statute miles
Wind: 9 knots (from 110°)
Temp: 9°c / 48°f
Humidity: 70.8%

METAR: CYBK 192200Z 11009KT 20SM FEW025 SCT040 BKN230 09/04 A3006 RMK ST1SC3CC2 ST TR SLP183

(Powered by phpweather)
Airport Radio Frequencies
ARPT RDO: 122.1
Nearby VORs <50NM
Nearby NDBs
Runway 16T / 34T
Dimensions:1303.6 x 30.5m 4277' x 100'ft
Surface:Gravel
Edge Lights:Medium intensity
Runway 16T [A]Runway 34T [B]
Heading:161°TH 341°TH
Lat:
Lng:
64° 18' 15.99"N
96° 4' 55.01"W
64° 17' 36.01"N
96° 4' 24.99"W
TDZ:Yes, lighted
User Notes and Comments
64° 17' 56" N / 96° 4' 40" W
Distance To
Airport ID:
Nearby Airports
(U) RANKIN INLET 159.4 NM
CYRT ( WX ) SE 130°
4 Chesterfield Inlet 175.7 NM
CYCS ESE 111°
4 Whale Cove 178.6 NM
CYXN SE 142°
4 ARVIAT 230.3 NM
CYEK SSE 163°
4 Gjoa Haven 299.7 NM
CYHK N
4 REPULSE BAY 321.7 NM
CYUT ENE 61°
4 Nejalini Lake 337.1 NM
CKW9 S 189°
VFR Chart
Flight Planning at SkyVector.com